Time;durP1;ratioP1;P1;durP2;ratioP2;P2;SDS_P1;SDS_P2;PMS_P1;PMS_P2;Temp;Humidity;BMP_temperature;BMP_pressure;BME280_temperature;BME280_humidity;BME280_pressure;Samples;Min_cycle;Max_cycle;Signal;HPM_P1;HPM_P2
2023/04/16 00:02:17;;;;;;;6.43;5.53;;;;;;;14.66;100.00;18498.75;5095352;28;20188;-62
2023/04/16 00:04:44;;;;;;;8.57;6.30;;;;;;;14.74;100.00;18825.06;5094670;28;20216;-62
2023/04/16 00:07:11;;;;;;;6.07;5.57;;;;;;;14.72;100.00;21089.63;5095132;28;20233;-63
2023/04/16 00:09:39;;;;;;;7.10;6.20;;;;;;;14.64;100.00;24001.06;5094891;28;20200;-63
2023/04/16 00:12:06;;;;;;;7.23;6.53;;;;;;;14.89;100.00;24660.22;5094845;28;20255;-62
2023/04/16 00:14:35;;;;;;;7.70;6.20;;;;;;;14.88;100.00;27254.00;5094613;28;20215;-61
2023/04/16 00:17:02;;;;;;;8.00;7.00;;;;;;;14.93;100.00;29203.66;5094803;28;20188;-61
2023/04/16 00:19:29;;;;;;;5.87;5.40;;;;;;;14.98;100.00;30180.38;5094376;28;20190;-63
2023/04/16 00:21:56;;;;;;;6.17;5.63;;;;;;;14.82;100.00;30171.66;5094517;28;20210;-62
2023/04/16 00:24:23;;;;;;;10.70;6.23;;;;;;;14.86;100.00;29199.94;5094197;28;20211;-62
2023/04/16 00:26:50;;;;;;;8.67;6.37;;;;;;;15.01;100.00;29532.28;5094732;28;20597;-63
2023/04/16 00:29:17;;;;;;;9.37;6.10;;;;;;;14.96;100.00;29204.97;5094206;28;20215;-63
2023/04/16 00:31:46;;;;;;;7.20;6.70;;;;;;;14.92;100.00;29527.47;5094340;28;20270;-63
2023/04/16 00:34:13;;;;;;;6.77;5.87;;;;;;;14.79;100.00;28222.72;5094262;28;20234;-63
2023/04/16 00:36:40;;;;;;;9.53;6.00;;;;;;;14.89;100.00;25632.84;5094389;28;20561;-63
2023/04/16 00:39:07;;;;;;;15.73;5.93;;;;;;;14.72;100.00;27246.03;5094129;28;20187;-63
2023/04/16 00:41:34;;;;;;;10.27;6.60;;;;;;;14.97;100.00;23367.31;5094777;28;20231;-62
2023/04/16 00:44:01;;;;;;;6.33;5.50;;;;;;;15.18;100.00;28891.63;5093940;28;20759;-61
2023/04/16 00:46:28;;;;;;;10.10;6.00;;;;;;;15.21;100.00;35069.16;5094164;28;20180;-63
2023/04/16 00:49:00;;;;;;;7.33;6.10;;;;;;;15.13;100.00;38969.94;5093781;28;20298;-62
2023/04/16 00:51:28;;;;;;;11.03;5.97;;;;;;;15.16;100.00;38971.66;5093834;28;20194;-62
2023/04/16 00:53:55;;;;;;;8.87;5.73;;;;;;;15.01;100.00;38310.88;5094087;28;20187;-63
2023/04/16 00:56:23;;;;;;;9.93;5.90;;;;;;;15.02;100.00;35382.81;5093717;28;20212;-62
2023/04/16 00:58:50;;;;;;;8.90;5.77;;;;;;;15.11;100.00;36364.28;5093976;28;20267;-63
2023/04/16 01:01:17;;;;;;;9.10;6.40;;;;;;;15.22;100.00;38650.09;5093562;28;20274;-63
2023/04/16 01:03:46;;;;;;;10.33;6.30;;;;;;;15.32;100.00;42894.25;5092420;28;20275;-62
2023/04/16 01:06:15;;;;;;;10.57;6.07;;;;;;;15.30;100.00;47462.22;5093762;28;20184;-62
2023/04/16 01:08:42;;;;;;;10.30;5.70;;;;;;;15.26;100.00;48765.41;5093376;28;20241;-63
2023/04/16 01:11:10;;;;;;;8.40;6.27;;;;;;;15.04;100.00;38638.47;5093527;28;20190;-62
2023/04/16 01:13:38;;;;;;;17.03;6.37;;;;;;;14.96;100.00;40260.81;5093263;28;20278;-62
2023/04/16 01:16:07;;;;;;;8.47;6.50;;;;;;;15.08;100.00;37338.66;5093552;28;20651;-62
2023/04/16 01:18:34;;;;;;;14.47;6.70;;;;;;;14.94;100.00;36678.63;5093582;28;20188;-62
2023/04/16 01:21:03;;;;;;;9.77;6.40;;;;;;;14.99;100.00;33429.69;5093435;28;20223;-62
2023/04/16 01:23:30;;;;;;;7.00;6.30;;;;;;;15.02;100.00;33756.88;5093093;28;20188;-63
2023/04/16 01:25:58;;;;;;;12.40;7.30;;;;;;;14.92;100.00;32125.66;5093063;28;20279;-63
2023/04/16 01:28:25;;;;;;;9.20;6.87;;;;;;;14.81;100.00;31145.19;5093141;28;20184;-62
2023/04/16 01:30:52;;;;;;;7.23;6.43;;;;;;;15.06;100.00;32133.75;5092831;28;20203;-62
2023/04/16 01:33:19;;;;;;;9.60;6.57;;;;;;;14.96;100.00;34078.34;5092999;28;20276;-62
2023/04/16 01:35:48;;;;;;;7.40;6.50;;;;;;;15.03;100.00;32782.28;5093202;28;20532;-63
2023/04/16 01:38:16;;;;;;;8.73;6.60;;;;;;;15.01;100.00;34406.56;5093175;28;20195;-62
2023/04/16 01:40:43;;;;;;;7.00;6.30;;;;;;;14.85;100.00;31147.44;5093092;28;20188;-62
2023/04/16 01:43:11;;;;;;;8.30;6.63;;;;;;;14.77;100.00;28545.91;5092714;28;20190;-62
2023/04/16 01:45:38;;;;;;;12.43;6.93;;;;;;;14.89;100.00;28876.94;5093026;28;20292;-62
2023/04/16 01:48:05;;;;;;;7.57;6.67;;;;;;;14.75;100.00;30492.47;5093005;28;20263;-62
2023/04/16 01:50:33;;;;;;;7.53;6.40;;;;;;;14.80;100.00;28872.22;5092592;28;20218;-63
2023/04/16 01:53:00;;;;;;;11.50;7.10;;;;;;;14.89;100.00;29526.16;5093021;28;20194;-62
2023/04/16 01:55:29;;;;;;;12.93;7.07;;;;;;;14.87;100.00;31148.28;5092574;28;20194;-62
2023/04/16 01:57:56;;;;;;;11.23;6.73;;;;;;;14.97;100.00;32128.53;5092518;28;20230;-62
2023/04/16 02:00:23;;;;;;;10.57;7.00;;;;;;;14.92;100.00;31476.22;5092505;28;20271;-61
2023/04/16 02:02:50;;;;;;;12.60;6.93;;;;;;;14.98;100.00;30504.84;5092363;28;20215;-63
2023/04/16 02:05:17;;;;;;;9.53;6.87;;;;;;;14.97;100.00;31478.75;5092392;28;20275;-63
2023/04/16 02:07:44;;;;;;;12.43;7.10;;;;;;;15.02;100.00;33106.72;5092659;28;20192;-62
2023/04/16 02:10:12;;;;;;;7.80;7.00;;;;;;;15.04;100.00;34408.09;5092633;28;20212;-62
2023/04/16 02:12:40;;;;;;;6.83;6.37;;;;;;;14.95;100.00;35378.41;5092218;28;20319;-63
2023/04/16 02:15:08;;;;;;;8.17;6.87;;;;;;;14.94;100.00;34077.13;5090795;28;20180;-62
2023/04/16 02:17:36;;;;;;;6.60;6.10;;;;;;;15.02;100.00;35057.56;5092450;28;20227;-63
2023/04/16 02:20:05;;;;;;;7.20;6.57;;;;;;;15.04;100.00;37010.88;5092159;28;20180;-62
2023/04/16 02:22:32;;;;;;;8.27;7.47;;;;;;;15.18;100.00;41580.00;5092107;28;20188;-62
2023/04/16 02:24:59;;;;;;;13.87;8.30;;;;;;;15.17;100.00;44513.69;5092087;28;20192;-62
2023/04/16 02:27:26;;;;;;;9.77;8.83;;;;;;;15.16;100.00;48756.47;5092016;28;20223;-62
2023/04/16 02:29:55;;;;;;;10.93;9.20;;;;;;;15.10;100.00;51365.66;5092394;28;20214;-62
2023/04/16 02:32:22;;;;;;;10.57;8.97;;;;;;;14.93;100.00;44169.66;5091961;28;20204;-62
2023/04/16 02:34:49;;;;;;;8.77;7.83;;;;;;;14.88;100.00;37651.13;5092145;28;20294;-63
2023/04/16 02:37:17;;;;;;;8.70;7.83;;;;;;;14.84;100.00;34070.72;5091846;28;20187;-63
2023/04/16 02:39:44;;;;;;;12.23;8.33;;;;;;;14.81;100.00;31469.69;5091874;28;20192;-62
2023/04/16 02:42:11;;;;;;;14.20;9.53;;;;;;;14.88;100.00;30824.09;5092113;28;20664;-63
2023/04/16 02:44:38;;;;;;;14.07;9.77;;;;;;;14.70;100.00;34387.50;5092109;28;20718;-63
2023/04/16 02:47:06;;;;;;;14.37;9.80;;;;;;;14.64;100.00;31785.03;5092069;28;20279;-62
2023/04/16 02:49:34;;;;;;;13.63;9.97;;;;;;;14.50;100.00;25290.44;5091699;28;20214;-63
2023/04/16 02:52:01;;;;;;;10.47;8.30;;;;;;;14.38;100.00;23341.72;5092178;28;20560;-62
2023/04/16 02:54:28;;;;;;;13.20;8.20;;;;;;;14.59;100.00;21408.34;5091669;28;20274;-62
2023/04/16 02:56:55;;;;;;;8.03;7.27;;;;;;;14.67;100.00;22382.69;5091575;28;20188;-63
2023/04/16 02:59:22;;;;;;;12.23;7.73;;;;;;;14.66;100.00;22382.25;5092088;28;20187;-63
2023/04/16 03:01:49;;;;;;;13.73;7.53;;;;;;;14.63;100.00;22057.44;5091955;28;20634;-61
2023/04/16 03:04:18;;;;;;;12.03;7.50;;;;;;;14.59;100.00;23351.03;5091901;28;20609;-62
2023/04/16 03:06:45;;;;;;;10.90;7.20;;;;;;;14.71;100.00;24651.78;5092120;28;20261;-62
2023/04/16 03:09:12;;;;;;;10.03;8.20;;;;;;;14.90;100.00;28552.91;5091489;28;20188;-62
2023/04/16 03:11:39;;;;;;;10.33;7.40;;;;;;;15.09;100.00;33435.69;5091564;28;20562;-62
2023/04/16 03:14:06;;;;;;;16.73;7.87;;;;;;;15.18;100.00;37019.78;5091783;28;20631;-63
2023/04/16 03:16:33;;;;;;;9.63;8.20;;;;;;;15.14;100.00;35064.47;5090550;28;20275;-63
2023/04/16 03:19:00;;;;;;;10.07;7.23;;;;;;;15.04;100.00;34408.41;5091720;28;20631;-64
2023/04/16 03:21:30;;;;;;;14.77;8.00;;;;;;;14.96;100.00;32778.16;5091553;28;20216;-62
2023/04/16 03:23:57;;;;;;;12.43;9.03;;;;;;;14.97;100.00;32453.78;5091387;28;20253;-63
2023/04/16 03:26:24;;;;;;;18.83;11.93;;;;;;;14.94;100.00;36028.28;5093737;28;20187;-63
2023/04/16 03:28:51;;;;;;;21.90;17.73;;;;;;;14.80;100.00;39598.59;5095607;28;20195;-62
2023/04/16 03:31:18;;;;;;;21.80;15.90;;;;;;;14.98;100.00;41239.88;5095403;28;20219;-62
2023/04/16 03:33:45;;;;;;;18.10;13.13;;;;;;;14.94;100.00;39934.06;5095339;28;20279;-62
2023/04/16 03:36:12;;;;;;;23.83;13.43;;;;;;;14.89;100.00;35699.84;5095279;28;20245;-62
2023/04/16 03:38:41;;;;;;;20.83;13.40;;;;;;;14.91;100.00;34400.41;5095516;28;20188;-62
2023/04/16 03:41:08;;;;;;;14.87;13.07;;;;;;;14.87;100.00;34722.75;5095542;28;20234;-62
2023/04/16 03:43:35;;;;;;;20.03;13.73;;;;;;;14.84;100.00;33745.69;5095485;28;20194;-62
2023/04/16 03:46:02;;;;;;;16.80;12.90;;;;;;;14.86;100.00;33096.91;5095198;28;20629;-63
2023/04/16 03:48:29;;;;;;;14.03;12.03;;;;;;;14.67;100.00;28540.97;5095387;28;20188;-63
2023/04/16 03:50:58;;;;;;;18.00;12.27;;;;;;;14.56;100.00;24645.19;5095153;28;20212;-62
2023/04/16 03:53:25;;;;;;;15.87;10.87;;;;;;;14.48;100.00;20433.19;5095083;28;20194;-63
2023/04/16 03:55:54;;;;;;;17.30;9.80;;;;;;;14.55;100.00;18171.47;5094947;28;20227;-63
2023/04/16 03:58:21;;;;;;;13.97;11.17;;;;;;;14.68;100.00;17852.63;5095126;28;20264;-62
2023/04/16 04:00:48;;;;;;;14.67;11.03;;;;;;;14.81;100.00;19798.38;5094629;28;20214;-62
2023/04/16 04:03:17;;;;;;;18.93;12.27;;;;;;;14.67;100.00;25622.47;5094807;28;20184;-62
2023/04/16 04:05:44;;;;;;;14.97;11.80;;;;;;;14.87;100.00;24659.06;5094672;28;20249;-63
2023/04/16 04:08:11;;;;;;;15.17;11.60;;;;;;;14.95;100.00;27257.47;5094819;28;20184;-63
2023/04/16 04:10:38;;;;;;;16.60;10.97;;;;;;;14.84;100.00;27900.59;5094921;28;20305;-62
2023/04/16 04:13:07;;;;;;;13.17;11.40;;;;;;;14.45;100.00;27556.78;5094658;28;20714;-63
2023/04/16 04:15:34;;;;;;;21.13;10.50;;;;;;;14.86;100.00;22066.50;5094826;28;20668;-62
2023/04/16 04:18:01;;;;;;;16.43;10.87;;;;;;;14.47;100.00;19138.75;5094440;28;20188;-62
2023/04/16 04:20:28;;;;;;;13.63;11.60;;;;;;;14.64;100.00;20115.56;5094588;28;20267;-62
2023/04/16 04:22:55;;;;;;;12.97;11.60;;;;;;;14.59;100.00;18819.69;5094290;28;20190;-64
2023/04/16 04:25:23;;;;;;;15.70;11.80;;;;;;;14.53;100.00;17201.09;5094416;28;20225;-61
2023/04/16 04:27:50;;;;;;;14.67;11.87;;;;;;;14.86;100.00;17211.75;5094407;28;20249;-62
2023/04/16 04:30:18;;;;;;;19.33;11.73;;;;;;;14.78;100.00;17532.66;5094334;28;20204;-62
2023/04/16 04:32:46;;;;;;;20.60;10.77;;;;;;;14.84;100.00;20123.19;5094425;28;20275;-67
2023/04/16 04:35:13;;;;;;;11.33;10.30;;;;;;;14.91;100.00;22392.72;5094455;28;20208;-62
2023/04/16 04:37:40;;;;;;;13.50;10.47;;;;;;;14.97;100.00;22071.28;5093876;28;20199;-62
2023/04/16 04:40:08;;;;;;;11.13;9.93;;;;;;;15.03;100.00;22721.75;5094419;28;20192;-63
2023/04/16 04:42:35;;;;;;;12.40;9.80;;;;;;;15.06;100.00;24019.31;5093939;28;20274;-62
2023/04/16 04:45:02;;;;;;;15.17;10.20;;;;;;;15.11;100.00;23373.16;5094225;28;20643;-63
2023/04/16 04:47:31;;;;;;;11.17;9.90;;;;;;;15.18;100.00;25646.03;5094333;28;20184;-61
2023/04/16 04:49:58;;;;;;;13.70;9.17;;;;;;;15.25;100.00;26623.03;5093775;28;20271;-63
2023/04/16 04:52:25;;;;;;;14.63;9.63;;;;;;;15.41;100.00;29553.44;5094164;28;20621;-62
2023/04/16 04:54:53;;;;;;;10.20;9.20;;;;;;;15.26;100.00;31819.94;5094262;28;20680;-62
2023/04/16 04:57:20;;;;;;;11.70;9.10;;;;;;;15.41;100.00;36057.81;5094015;28;20618;-62
2023/04/16 04:59:48;;;;;;;12.23;9.83;;;;;;;15.67;100.00;35097.63;5093941;28;20255;-63
2023/04/16 05:02:15;;;;;;;11.53;10.00;;;;;;;15.58;100.00;31838.28;5093539;28;20287;-62
2023/04/16 05:04:44;;;;;;;16.97;9.97;;;;;;;16.04;100.00;35120.19;5093817;28;20192;-62
2023/04/16 05:07:11;;;;;;;15.63;9.63;;;;;;;16.20;100.00;40347.97;5093484;28;20177;-63
2023/04/16 05:09:38;;;;;;;13.37;9.30;;;;;;;16.30;100.00;51144.56;5093651;28;20270;-63
2023/04/16 05:12:05;;;;;;;10.10;9.10;;;;;;;16.25;100.00;53105.31;5093433;28;20326;-62
2023/04/16 05:14:32;;;;;;;15.40;10.30;;;;;;;16.46;100.00;57059.88;5093373;28;20274;-63
2023/04/16 05:16:59;;;;;;;12.03;9.53;;;;;;;16.46;100.00;60671.16;5093723;28;20195;-62
2023/04/16 05:19:27;;;;;;;16.57;10.40;;;;;;;16.60;100.00;64629.59;5093273;28;20188;-61
2023/04/16 05:21:56;;;;;;;14.27;10.03;;;;;;;16.58;100.00;65943.28;5093510;28;20651;-62
2023/04/16 05:24:23;;;;;;;12.80;9.43;;;;;;;16.83;100.00;75861.19;5093272;28;20680;-64
2023/04/16 05:26:50;;;;;;;15.93;9.50;;;;;;;16.81;100.00;84122.19;5093068;28;20275;-63
2023/04/16 05:29:17;;;;;;;12.57;9.17;;;;;;;17.04;100.00;86803.03;5093113;28;20287;-62
2023/04/16 05:31:44;;;;;;;12.30;9.43;;;;;;;17.04;100.00;93103.28;5092931;28;20210;-62
2023/04/16 05:34:11;;;;;;;12.37;9.53;;;;;;;17.19;100.00;97777.81;5093250;28;20699;-63
2023/04/16 05:36:38;;;;;;;9.33;8.47;;;;;;;17.06;100.00;100749.53;5093251;28;20603;-62
2023/04/16 05:39:07;;;;;;;14.90;9.10;;;;;;;17.36;100.00;94150.28;5093154;28;20560;-63
2023/04/16 05:41:34;;;;;;;10.90;8.67;;;;;;;17.37;100.00;104464.50;5093296;28;20290;-63
2023/04/16 05:44:01;;;;;;;13.10;9.53;;;;;;;17.55;100.00;117183.19;5092845;28;20187;-62
2023/04/16 05:46:28;;;;;;;13.43;9.00;;;;;;;17.66;100.00;119882.28;5092930;28;20270;-62
2023/04/16 05:48:55;;;;;;;17.00;8.77;;;;;;;17.70;100.00;126257.50;5092350;28;20561;-63
2023/04/16 05:51:24;;;;;;;9.70;8.33;;;;;;;18.01;100.00;131359.97;5092528;28;20299;-63
2023/04/16 05:53:52;;;;;;;13.77;8.23;;;;;;;18.15;100.00;146175.22;5092655;28;20184;-63
2023/04/16 05:56:20;;;;;;;11.17;8.40;;;;;;;18.91;100.00;150789.81;5092530;28;20267;-64
2023/04/16 05:58:47;;;;;;;8.57;7.70;;;;;;;19.03;100.00;150820.34;5091316;28;20191;-63
2023/04/16 06:01:14;;;;;;;8.37;7.60;;;;;;;19.46;100.00;150928.56;5092498;28;20184;-63
2023/04/16 06:03:42;;;;;;;10.77;7.13;;;;;;;19.47;100.00;150931.09;5092196;28;20210;-64
2023/04/16 06:06:09;;;;;;;9.07;8.10;;;;;;;19.29;100.00;150886.50;5092717;28;20184;-63
2023/04/16 06:08:36;;;;;;;11.27;7.50;;;;;;;18.99;100.00;150810.16;5092481;28;20177;-63
2023/04/16 06:11:03;;;;;;;9.03;7.33;;;;;;;18.86;100.00;150778.38;5092267;28;20212;-63
2023/04/16 06:13:32;;;;;;;9.67;7.63;;;;;;;18.64;100.00;150722.38;5091548;28;20235;-63
2023/04/16 06:15:59;;;;;;;7.77;7.10;;;;;;;18.64;100.00;150723.66;5091697;28;20631;-63
2023/04/16 06:18:26;;;;;;;20.27;7.90;;;;;;;18.78;100.00;150756.75;5091571;28;20608;-63
2023/04/16 06:20:53;;;;;;;8.00;7.20;;;;;;;19.24;100.00;150873.78;5091017;28;20223;-63
2023/04/16 06:23:20;;;;;;;8.53;7.77;;;;;;;19.86;100.00;151029.13;5091629;28;20238;-64
2023/04/16 06:25:47;;;;;;;11.80;7.40;;;;;;;20.06;100.00;151081.31;5091515;28;20214;-63
2023/04/16 06:28:14;;;;;;;9.27;7.87;;;;;;;19.89;100.00;151038.03;5091575;28;20279;-64
2023/04/16 06:30:43;;;;;;;13.20;7.23;;;;;;;20.00;100.00;151066.00;5091180;28;20329;-64
2023/04/16 06:33:10;;;;;;;12.87;7.50;;;;;;;19.98;100.00;151059.66;5091242;28;20275;-64
2023/04/16 06:35:37;;;;;;;8.00;7.17;;;;;;;19.98;100.00;151060.94;5091387;28;20191;-64
2023/04/16 06:38:04;;;;;;;9.47;7.60;;;;;;;20.05;100.00;151077.47;5091318;28;20711;-64
2023/04/16 06:40:31;;;;;;;11.97;9.17;;;;;;;19.98;100.00;151060.94;5091517;28;20199;-63
2023/04/16 06:42:58;;;;;;;16.90;9.63;;;;;;;20.18;100.00;151109.31;5090990;28;20211;-64
2023/04/16 06:45:25;;;;;;;12.03;9.60;;;;;;;20.15;100.00;151101.69;5091077;28;20219;-63
2023/04/16 06:47:53;;;;;;;10.13;9.10;;;;;;;20.18;100.00;151110.59;5090921;28;20271;-64
2023/04/16 06:50:22;;;;;;;9.60;8.67;;;;;;;20.26;100.00;151130.94;5091120;28;20279;-63
2023/04/16 06:52:49;;;;;;;9.93;7.93;;;;;;;20.54;100.00;151199.78;5090986;28;20179;-64
2023/04/16 06:55:16;;;;;;;8.43;7.63;;;;;;;20.68;100.00;151235.41;5091227;28;20180;-64
2023/04/16 06:57:43;;;;;;;8.80;7.30;;;;;;;20.87;100.00;151283.84;5091145;28;20188;-65
2023/04/16 07:00:11;;;;;;;11.90;7.37;;;;;;;21.07;100.00;151334.78;5089630;28;20219;-63
2023/04/16 07:02:39;;;;;;;9.87;6.47;;;;;;;21.27;100.00;151384.50;5091130;28;20184;-64
2023/04/16 07:05:08;;;;;;;7.70;7.17;;;;;;;21.25;100.00;151380.72;5091066;28;20207;-64
2023/04/16 07:07:35;;;;;;;12.80;7.93;;;;;;;20.92;100.00;151297.81;5090688;28;20195;-64
2023/04/16 07:10:04;;;;;;;11.93;6.60;;;;;;;20.52;100.00;151197.22;5090675;28;20215;-63
2023/04/16 07:12:32;;;;;;;10.43;6.27;;;;;;;19.95;100.00;151052.00;5046246;28;1268722;-63
2023/04/16 07:14:59;;;;;;;6.47;5.33;;;;;;;19.53;100.00;150947.63;5091534;28;20270;-64
2023/04/16 07:17:26;;;;;;;6.10;5.70;;;;;;;19.45;100.00;150927.28;5091880;28;20267;-64
2023/04/16 07:19:53;;;;;;;6.80;5.63;;;;;;;19.33;100.00;150896.69;5091840;28;20220;-63
2023/04/16 07:22:22;;;;;;;7.37;5.60;;;;;;;18.81;100.00;150765.63;5091775;28;20191;-63
2023/04/16 07:24:49;;;;;;;6.83;6.20;;;;;;;18.64;100.00;150722.38;5091344;28;20184;-63
2023/04/16 07:27:16;;;;;;;9.73;6.60;;;;;;;18.34;100.00;150646.03;5091430;28;20223;-63
2023/04/16 07:29:44;;;;;;;7.27;6.77;;;;;;;18.16;100.00;150602.81;5091785;28;20188;-63
2023/04/16 07:32:12;;;;;;;9.43;6.53;;;;;;;17.96;100.00;150550.69;5091195;28;20232;-63
2023/04/16 07:34:39;;;;;;;10.60;5.93;;;;;;;18.04;100.00;150572.28;5091335;28;20188;-63
2023/04/16 07:37:06;;;;;;;7.50;6.77;;;;;;;18.52;100.00;150693.16;5091269;28;20199;-63
2023/04/16 07:39:34;;;;;;;7.10;6.40;;;;;;;18.57;100.00;150705.88;5091508;28;20294;-63
2023/04/16 07:42:02;;;;;;;6.00;5.53;;;;;;;18.86;100.00;150778.38;5091555;28;20259;-64
2023/04/16 07:44:29;;;;;;;7.33;6.83;;;;;;;19.01;100.00;150816.50;5091464;28;20184;-63
2023/04/16 07:46:56;;;;;;;6.63;5.97;;;;;;;19.30;100.00;150887.78;5091597;28;20283;-64
2023/04/16 07:49:23;;;;;;;6.63;5.90;;;;;;;19.58;100.00;150959.09;5091440;28;20211;-64
2023/04/16 07:51:50;;;;;;;6.90;5.70;;;;;;;19.83;100.00;151021.44;5091051;28;20291;-64
2023/04/16 07:54:18;;;;;;;7.67;6.87;;;;;;;19.58;100.00;150960.38;5091488;28;20188;-64
2023/04/16 07:56:47;;;;;;;8.90;5.90;;;;;;;19.79;100.00;151011.28;5091295;28;20268;-63
2023/04/16 07:59:14;;;;;;;6.23;5.73;;;;;;;19.75;100.00;151002.38;5091087;28;20188;-64
2023/04/16 08:01:41;;;;;;;12.40;6.70;;;;;;;19.81;100.00;151016.38;5089852;28;20558;-64
2023/04/16 08:04:11;;;;;;;7.33;6.80;;;;;;;19.87;100.00;151032.91;5091125;28;20184;-63
2023/04/16 08:06:38;;;;;;;7.23;6.63;;;;;;;20.04;100.00;151074.91;5090959;28;20199;-64
2023/04/16 08:09:05;;;;;;;6.60;6.10;;;;;;;20.03;100.00;151072.34;5091591;28;20247;-64
2023/04/16 08:11:32;;;;;;;14.10;6.73;;;;;;;19.89;100.00;151038.03;5091593;28;20204;-63
2023/04/16 08:14:01;;;;;;;9.33;6.30;;;;;;;19.75;100.00;151001.09;5094600;28;20677;-64
2023/04/16 08:16:28;;;;;;;12.80;6.97;;;;;;;19.59;100.00;150962.94;5094554;28;20219;-64
2023/04/16 08:18:55;;;;;;;7.93;6.73;;;;;;;19.45;100.00;150926.00;5094581;28;20275;-63
2023/04/16 08:21:22;;;;;;;7.90;6.77;;;;;;;19.48;100.00;150934.91;5093313;28;20271;-63
2023/04/16 08:23:49;;;;;;;10.80;6.60;;;;;;;19.59;100.00;150962.94;5094639;28;20194;-63
2023/04/16 08:26:16;;;;;;;7.60;6.90;;;;;;;19.93;100.00;151048.19;5094729;28;20291;-64
2023/04/16 08:28:43;;;;;;;7.23;6.70;;;;;;;20.05;100.00;151078.75;5094721;28;20180;-63
2023/04/16 08:31:11;;;;;;;12.97;7.30;;;;;;;20.26;100.00;151130.94;5094129;28;20589;-64
2023/04/16 08:33:40;;;;;;;7.87;6.57;;;;;;;20.21;100.00;151116.94;5094473;28;20629;-64
2023/04/16 08:36:08;;;;;;;9.43;6.67;;;;;;;20.34;100.00;151151.38;5094412;28;20569;-64
2023/04/16 08:38:35;;;;;;;6.20;5.70;;;;;;;20.29;100.00;151137.28;5094486;28;20325;-63
2023/04/16 08:41:06;;;;;;;6.23;5.90;;;;;;;20.42;100.00;151171.72;5094495;28;20200;-64
2023/04/16 08:43:37;;;;;;;10.73;6.90;;;;;;;20.70;100.00;151241.81;5094006;28;20200;-64
2023/04/16 08:46:05;;;;;;;7.80;6.07;;;;;;;21.06;100.00;151330.94;5094175;28;20203;-64
2023/04/16 08:48:35;;;;;;;13.20;6.20;;;;;;;21.13;100.00;151350.09;5094192;28;20638;-64
2023/04/16 08:51:03;;;;;;;5.87;5.47;;;;;;;21.32;100.00;151398.53;5093763;28;20180;-64
2023/04/16 08:53:36;;;;;;;5.97;5.57;;;;;;;21.54;100.00;151453.34;5093864;28;20275;-63
2023/04/16 08:56:05;;;;;;;8.50;5.60;;;;;;;21.65;100.00;151480.09;5094083;28;20184;-65
2023/04/16 08:58:34;;;;;;;5.90;5.37;;;;;;;22.02;100.00;151574.50;5094205;28;20690;-65
2023/04/16 09:01:03;;;;;;;6.10;5.60;;;;;;;22.36;100.00;151659.94;5093694;28;20180;-64
2023/04/16 09:03:31;;;;;;;5.30;4.90;;;;;;;22.53;100.00;151702.00;5093604;28;20218;-64
2023/04/16 09:06:01;;;;;;;5.82;5.05;;;;;;;22.83;100.00;151778.53;5093518;28;20308;-64
2023/04/16 09:08:29;;;;;;;6.32;5.57;;;;;;;22.89;100.00;151792.59;5093894;28;20270;-64
2023/04/16 09:10:57;;;;;;;8.35;6.20;;;;;;;22.89;100.00;151792.59;5093640;28;20187;-65
2023/04/16 09:13:24;;;;;;;8.10;5.32;;;;;;;23.01;100.00;151823.19;5093307;28;20580;-65
2023/04/16 09:15:53;;;;;;;6.47;4.53;;;;;;;22.58;100.00;151714.72;5093683;28;20587;-63
2023/04/16 09:18:21;;;;;;;8.73;5.32;;;;;;;23.07;100.00;151839.81;5093711;28;20682;-64
2023/04/16 09:20:48;;;;;;;5.47;5.07;;;;;;;23.00;100.00;151821.91;5093456;28;20184;-65
2023/04/16 09:23:17;;;;;;;5.70;5.10;;;;;;;22.68;100.00;151740.25;5092478;28;20195;-64
2023/04/16 09:25:44;;;;;;;5.53;4.63;;;;;;;22.54;100.00;151705.81;5093223;28;20184;-65
2023/04/16 09:28:12;;;;;;;5.22;4.82;;;;;;;22.46;100.00;151684.13;5093845;28;20683;-64
2023/04/16 09:30:39;;;;;;;4.90;4.45;;;;;;;22.33;100.00;151652.25;5093041;28;20275;-64
2023/04/16 09:33:15;;;;;;;8.50;5.63;;;;;;;22.23;100.00;151626.78;5093299;28;20204;-65
2023/04/16 09:35:46;;;;;;;5.90;5.30;;;;;;;22.20;100.00;151620.38;5093236;28;20273;-65
2023/04/16 09:38:13;;;;;;;9.05;5.32;;;;;;;22.13;100.00;151602.53;5091919;28;20196;-64
2023/04/16 09:40:42;;;;;;;10.15;6.45;;;;;;;21.75;100.00;151506.88;5093259;28;20591;-64
2023/04/16 09:43:14;;;;;;;5.85;5.30;;;;;;;21.68;100.00;151487.75;5093183;28;20259;-65
2023/04/16 09:45:51;;;;;;;6.10;5.60;;;;;;;21.81;100.00;151520.91;5093297;28;20218;-64
2023/04/16 09:48:29;;;;;;;6.15;5.75;;;;;;;21.82;100.00;151523.44;5092751;28;20275;-63
2023/04/16 09:50:57;;;;;;;10.38;6.05;;;;;;;21.73;100.00;151500.47;5093106;28;20195;-64
2023/04/16 09:53:25;;;;;;;7.13;6.43;;;;;;;21.71;100.00;151496.69;5092628;28;20210;-63
2023/04/16 09:55:56;;;;;;;6.75;6.15;;;;;;;21.40;100.00;151418.94;5092898;28;20191;-64
2023/04/16 09:58:24;;;;;;;6.22;5.82;;;;;;;21.22;100.00;151373.03;5092545;28;20216;-65
2023/04/16 10:00:56;;;;;;;6.00;5.43;;;;;;;20.62;100.00;151220.16;5092556;28;20186;-64
2023/04/16 10:03:29;;;;;;;6.20;5.80;;;;;;;20.35;100.00;151153.91;5092485;28;20187;-63
2023/04/16 10:05:59;;;;;;;5.97;5.67;;;;;;;19.85;100.00;151027.84;5092748;28;20671;-63
2023/04/16 10:08:26;;;;;;;6.83;6.43;;;;;;;19.53;100.00;150947.63;5092319;28;20219;-63
2023/04/16 10:10:57;;;;;;;6.03;5.53;;;;;;;18.88;100.00;150783.47;5092623;28;20657;-63
2023/04/16 10:13:26;;;;;;;6.40;5.90;;;;;;;19.11;100.00;150840.69;5092053;28;20242;-64
2023/04/16 10:15:56;;;;;;;6.50;5.93;;;;;;;19.18;100.00;150859.75;5092313;28;20176;-64
2023/04/16 10:18:23;;;;;;;5.67;5.47;;;;;;;19.27;100.00;150881.41;5092329;28;20184;-63
2023/04/16 10:20:51;;;;;;;6.17;5.87;;;;;;;18.70;100.00;150737.69;5092464;28;20267;-63
2023/04/16 10:23:19;;;;;;;5.60;5.30;;;;;;;18.57;100.00;150705.88;5092211;28;20270;-63
2023/04/16 10:25:48;;;;;;;6.67;5.90;;;;;;;18.12;100.00;150592.63;5092095;28;20191;-63
2023/04/16 10:28:17;;;;;;;5.47;5.07;;;;;;;18.19;100.00;150609.19;5092223;28;20216;-63
2023/04/16 10:30:51;;;;;;;6.77;5.57;;;;;;;18.07;100.00;150578.69;5092334;28;20587;-63
2023/04/16 10:33:22;;;;;;;5.83;5.30;;;;;;;17.89;100.00;150534.19;5091967;28;20206;-63
2023/04/16 10:35:50;;;;;;;5.97;5.50;;;;;;;17.67;100.00;150479.50;5091722;28;20195;-63
2023/04/16 10:38:25;;;;;;;5.57;5.27;;;;;;;17.71;100.00;150489.69;5091965;28;20191;-62
2023/04/16 10:40:59;;;;;;;5.40;5.00;;;;;;;17.88;100.00;150531.63;5092285;28;20286;-63
2023/04/16 10:43:29;;;;;;;6.23;5.70;;;;;;;18.01;100.00;150564.69;5091838;28;20192;-63
2023/04/16 10:45:56;;;;;;;5.80;5.30;;;;;;;17.84;100.00;150520.19;5091812;28;20219;-63
2023/04/16 10:48:24;;;;;;;6.10;5.60;;;;;;;17.30;100.00;150385.44;5091845;28;20283;-63
2023/04/16 10:50:57;;;;;;;5.73;5.43;;;;;;;16.87;100.00;150278.72;5091994;28;20184;-62
2023/04/16 10:53:26;;;;;;;5.80;5.40;;;;;;;16.80;100.00;150260.91;5091940;28;20204;-63
2023/04/16 10:56:14;;;;;;;5.83;5.30;;;;;;;16.76;100.00;150249.53;5091652;28;20184;-63
2023/04/16 10:58:42;;;;;;;6.27;5.60;;;;;;;16.93;100.00;150291.44;5086892;28;20196;-62
2023/04/16 11:01:15;;;;;;;5.90;5.57;;;;;;;16.80;100.00;150259.69;5091864;28;20207;-63
2023/04/16 11:03:43;;;;;;;6.07;5.47;;;;;;;16.90;100.00;150285.06;5091689;28;20176;-63
2023/04/16 11:06:15;;;;;;;6.33;5.83;;;;;;;16.85;100.00;150272.34;5091605;28;20216;-63
2023/04/16 11:08:44;;;;;;;5.80;5.40;;;;;;;16.60;100.00;150208.84;5091844;28;20681;-63
2023/04/16 11:11:12;;;;;;;5.97;5.40;;;;;;;16.63;100.00;150216.50;5091505;28;20188;-63
2023/04/16 11:13:42;;;;;;;5.93;5.43;;;;;;;16.52;100.00;150189.75;5091823;28;20267;-63
2023/04/16 11:16:11;;;;;;;5.70;5.20;;;;;;;16.50;100.00;150184.72;5091539;28;20283;-63
2023/04/16 11:18:40;;;;;;;12.03;6.27;;;;;;;16.52;100.00;150189.75;5091621;28;20180;-62
2023/04/16 11:21:09;;;;;;;5.67;5.37;;;;;;;16.53;100.00;150192.31;5091769;28;20549;-63